sensor_id;sensor_type;location;lat;lon;timestamp;temperature;humidity
24444;DHT22;13346;50.984;5.822;2022-10-17T00:01:45;13.20;99.90
24444;DHT22;13346;50.984;5.822;2022-10-17T00:04:12;13.20;99.90
24444;DHT22;13346;50.984;5.822;2022-10-17T00:06:39;13.30;99.90
24444;DHT22;13346;50.984;5.822;2022-10-17T00:09:07;13.30;99.90
24444;DHT22;13346;50.984;5.822;2022-10-17T00:11:35;13.60;99.90
24444;DHT22;13346;50.984;5.822;2022-10-17T00:14:02;13.80;99.90
24444;DHT22;13346;50.984;5.822;2022-10-17T00:16:32;13.80;99.90
24444;DHT22;13346;50.984;5.822;2022-10-17T00:19:01;13.60;99.90
24444;DHT22;13346;50.984;5.822;2022-10-17T00:21:29;13.40;99.90
24444;DHT22;13346;50.984;5.822;2022-10-17T00:23:56;13.60;99.90
24444;DHT22;13346;50.984;5.822;2022-10-17T00:26:25;13.90;99.90
24444;DHT22;13346;50.984;5.822;2022-10-17T00:28:52;14.50;99.90
24444;DHT22;13346;50.984;5.822;2022-10-17T00:31:20;14.70;99.90
24444;DHT22;13346;50.984;5.822;2022-10-17T00:33:48;14.90;99.90
24444;DHT22;13346;50.984;5.822;2022-10-17T00:36:17;15.00;99.90
24444;DHT22;13346;50.984;5.822;2022-10-17T00:38:46;15.10;99.90
24444;DHT22;13346;50.984;5.822;2022-10-17T00:41:16;15.20;99.90
24444;DHT22;13346;50.984;5.822;2022-10-17T00:43:55;15.20;99.90
24444;DHT22;13346;50.984;5.822;2022-10-17T00:46:24;15.20;99.90
24444;DHT22;13346;50.984;5.822;2022-10-17T00:48:53;15.40;99.90
24444;DHT22;13346;50.984;5.822;2022-10-17T00:51:26;15.50;99.90
24444;DHT22;13346;50.984;5.822;2022-10-17T00:53:55;15.60;99.90
24444;DHT22;13346;50.984;5.822;2022-10-17T00:56:22;15.60;99.90
24444;DHT22;13346;50.984;5.822;2022-10-17T00:58:49;15.70;99.90
24444;DHT22;13346;50.984;5.822;2022-10-17T01:01:18;15.90;99.90
24444;DHT22;13346;50.984;5.822;2022-10-17T01:03:45;16.00;99.90
24444;DHT22;13346;50.984;5.822;2022-10-17T01:06:12;16.20;99.90
24444;DHT22;13346;50.984;5.822;2022-10-17T01:08:39;16.20;99.90
24444;DHT22;13346;50.984;5.822;2022-10-17T01:11:17;16.40;99.90
24444;DHT22;13346;50.984;5.822;2022-10-17T01:13:51;16.50;99.90
24444;DHT22;13346;50.984;5.822;2022-10-17T01:16:28;16.50;99.90
24444;DHT22;13346;50.984;5.822;2022-10-17T01:19:02;16.60;99.90
24444;DHT22;13346;50.984;5.822;2022-10-17T01:21:42;16.50;99.90
24444;DHT22;13346;50.984;5.822;2022-10-17T01:24:47;16.60;99.90
24444;DHT22;13346;50.984;5.822;2022-10-17T01:27:35;16.60;99.90
24444;DHT22;13346;50.984;5.822;2022-10-17T01:33:29;16.60;99.90
24444;DHT22;13346;50.984;5.822;2022-10-17T01:36:00;16.90;99.90
24444;DHT22;13346;50.984;5.822;2022-10-17T01:38:32;17.00;99.90
24444;DHT22;13346;50.984;5.822;2022-10-17T01:41:04;16.90;99.90
24444;DHT22;13346;50.984;5.822;2022-10-17T01:43:36;17.00;99.90
24444;DHT22;13346;50.984;5.822;2022-10-17T01:46:09;17.00;99.90
24444;DHT22;13346;50.984;5.822;2022-10-17T01:48:43;17.00;99.90
24444;DHT22;13346;50.984;5.822;2022-10-17T01:51:14;17.00;99.90
24444;DHT22;13346;50.984;5.822;2022-10-17T01:53:48;17.00;99.90
24444;DHT22;13346;50.984;5.822;2022-10-17T01:56:16;17.00;99.90
24444;DHT22;13346;50.984;5.822;2022-10-17T01:58:48;17.00;99.90
24444;DHT22;13346;50.984;5.822;2022-10-17T02:01:17;17.00;99.90
24444;DHT22;13346;50.984;5.822;2022-10-17T02:03:48;17.10;99.90
24444;DHT22;13346;50.984;5.822;2022-10-17T02:06:16;17.20;99.90
24444;DHT22;13346;50.984;5.822;2022-10-17T02:08:45;17.30;99.90
24444;DHT22;13346;50.984;5.822;2022-10-17T02:11:15;17.30;99.90
24444;DHT22;13346;50.984;5.822;2022-10-17T02:16:36;17.40;99.90
24444;DHT22;13346;50.984;5.822;2022-10-17T02:19:29;17.30;99.90
24444;DHT22;13346;50.984;5.822;2022-10-17T02:22:08;17.40;99.90
24444;DHT22;13346;50.984;5.822;2022-10-17T02:24:44;17.40;99.90
24444;DHT22;13346;50.984;5.822;2022-10-17T02:27:16;17.30;99.90
24444;DHT22;13346;50.984;5.822;2022-10-17T02:29:55;17.20;99.90
24444;DHT22;13346;50.984;5.822;2022-10-17T02:32:27;17.20;99.90
24444;DHT22;13346;50.984;5.822;2022-10-17T02:35:01;17.10;99.90
24444;DHT22;13346;50.984;5.822;2022-10-17T02:37:30;17.10;99.90
24444;DHT22;13346;50.984;5.822;2022-10-17T02:39:59;17.10;99.90
24444;DHT22;13346;50.984;5.822;2022-10-17T02:42:28;17.10;99.90
24444;DHT22;13346;50.984;5.822;2022-10-17T02:44:58;17.10;99.90
24444;DHT22;13346;50.984;5.822;2022-10-17T02:47:28;17.10;99.90
24444;DHT22;13346;50.984;5.822;2022-10-17T02:49:59;17.00;99.90
24444;DHT22;13346;50.984;5.822;2022-10-17T02:52:30;17.00;99.90
24444;DHT22;13346;50.984;5.822;2022-10-17T02:55:01;17.00;99.90
24444;DHT22;13346;50.984;5.822;2022-10-17T02:57:32;16.90;99.90
24444;DHT22;13346;50.984;5.822;2022-10-17T03:00:01;16.80;99.90
24444;DHT22;13346;50.984;5.822;2022-10-17T03:02:37;16.60;99.90
24444;DHT22;13346;50.984;5.822;2022-10-17T03:05:08;16.50;99.90
24444;DHT22;13346;50.984;5.822;2022-10-17T03:07:35;16.50;99.90
24444;DHT22;13346;50.984;5.822;2022-10-17T03:10:03;16.40;99.90
24444;DHT22;13346;50.984;5.822;2022-10-17T03:12:30;16.30;99.90
24444;DHT22;13346;50.984;5.822;2022-10-17T03:14:57;16.40;99.90
24444;DHT22;13346;50.984;5.822;2022-10-17T03:17:24;16.50;99.90
24444;DHT22;13346;50.984;5.822;2022-10-17T03:19:51;16.70;99.90
24444;DHT22;13346;50.984;5.822;2022-10-17T03:22:20;16.80;99.90
24444;DHT22;13346;50.984;5.822;2022-10-17T03:24:47;16.90;99.90
24444;DHT22;13346;50.984;5.822;2022-10-17T03:27:15;17.00;99.90
24444;DHT22;13346;50.984;5.822;2022-10-17T03:29:42;17.00;99.90
24444;DHT22;13346;50.984;5.822;2022-10-17T03:32:09;17.00;99.90
24444;DHT22;13346;50.984;5.822;2022-10-17T03:34:36;17.00;99.90
24444;DHT22;13346;50.984;5.822;2022-10-17T03:37:03;17.10;99.90
24444;DHT22;13346;50.984;5.822;2022-10-17T03:39:32;17.20;99.90
24444;DHT22;13346;50.984;5.822;2022-10-17T03:41:59;17.30;99.90
24444;DHT22;13346;50.984;5.822;2022-10-17T03:44:26;17.30;99.90
24444;DHT22;13346;50.984;5.822;2022-10-17T03:46:53;17.30;99.90
24444;DHT22;13346;50.984;5.822;2022-10-17T03:49:20;17.20;99.90
24444;DHT22;13346;50.984;5.822;2022-10-17T03:51:47;17.10;99.90
24444;DHT22;13346;50.984;5.822;2022-10-17T03:54:14;17.20;99.90
24444;DHT22;13346;50.984;5.822;2022-10-17T03:56:43;17.20;99.90
24444;DHT22;13346;50.984;5.822;2022-10-17T03:59:12;17.20;99.90
24444;DHT22;13346;50.984;5.822;2022-10-17T04:01:39;17.20;99.90
24444;DHT22;13346;50.984;5.822;2022-10-17T04:04:06;17.20;99.90
24444;DHT22;13346;50.984;5.822;2022-10-17T04:06:34;17.10;99.90
24444;DHT22;13346;50.984;5.822;2022-10-17T04:09:01;17.20;99.90
24444;DHT22;13346;50.984;5.822;2022-10-17T04:11:29;17.30;99.90
24444;DHT22;13346;50.984;5.822;2022-10-17T04:13:57;17.30;99.90
24444;DHT22;13346;50.984;5.822;2022-10-17T04:16:25;17.30;99.90
24444;DHT22;13346;50.984;5.822;2022-10-17T04:18:53;17.40;99.90
24444;DHT22;13346;50.984;5.822;2022-10-17T04:21:21;17.60;99.90
24444;DHT22;13346;50.984;5.822;2022-10-17T04:23:52;17.50;99.90
24444;DHT22;13346;50.984;5.822;2022-10-17T04:26:20;17.60;99.90
24444;DHT22;13346;50.984;5.822;2022-10-17T04:28:47;17.50;99.90
24444;DHT22;13346;50.984;5.822;2022-10-17T04:31:16;17.60;99.90
24444;DHT22;13346;50.984;5.822;2022-10-17T04:33:46;17.70;99.90
24444;DHT22;13346;50.984;5.822;2022-10-17T04:36:16;17.80;99.90
24444;DHT22;13346;50.984;5.822;2022-10-17T04:38:43;17.80;99.90
24444;DHT22;13346;50.984;5.822;2022-10-17T04:41:13;17.80;99.90
24444;DHT22;13346;50.984;5.822;2022-10-17T04:43:40;17.80;99.90
24444;DHT22;13346;50.984;5.822;2022-10-17T04:46:10;17.80;99.90
24444;DHT22;13346;50.984;5.822;2022-10-17T04:48:39;17.80;99.90
24444;DHT22;13346;50.984;5.822;2022-10-17T04:51:09;17.80;99.90
24444;DHT22;13346;50.984;5.822;2022-10-17T04:53:37;17.80;99.90
24444;DHT22;13346;50.984;5.822;2022-10-17T04:56:08;17.70;99.90
24444;DHT22;13346;50.984;5.822;2022-10-17T04:58:36;17.80;99.90
24444;DHT22;13346;50.984;5.822;2022-10-17T05:01:04;17.90;99.90
24444;DHT22;13346;50.984;5.822;2022-10-17T05:03:32;17.90;99.90
24444;DHT22;13346;50.984;5.822;2022-10-17T05:06:04;17.70;99.90
24444;DHT22;13346;50.984;5.822;2022-10-17T05:08:32;17.60;99.90
24444;DHT22;13346;50.984;5.822;2022-10-17T05:10:59;17.60;99.90
24444;DHT22;13346;50.984;5.822;2022-10-17T05:13:26;17.50;99.90
24444;DHT22;13346;50.984;5.822;2022-10-17T05:15:53;17.50;99.90
24444;DHT22;13346;50.984;5.822;2022-10-17T05:18:23;17.40;99.90
24444;DHT22;13346;50.984;5.822;2022-10-17T05:20:50;17.50;99.90
24444;DHT22;13346;50.984;5.822;2022-10-17T05:23:19;17.50;99.90
24444;DHT22;13346;50.984;5.822;2022-10-17T05:25:46;17.50;99.90
24444;DHT22;13346;50.984;5.822;2022-10-17T05:28:13;17.50;99.90
24444;DHT22;13346;50.984;5.822;2022-10-17T05:30:40;17.50;99.90
24444;DHT22;13346;50.984;5.822;2022-10-17T05:33:07;17.50;99.90
24444;DHT22;13346;50.984;5.822;2022-10-17T05:35:35;17.50;99.90
24444;DHT22;13346;50.984;5.822;2022-10-17T05:38:02;17.50;99.90
24444;DHT22;13346;50.984;5.822;2022-10-17T05:40:30;17.50;99.90
24444;DHT22;13346;50.984;5.822;2022-10-17T05:42:58;17.50;99.90
24444;DHT22;13346;50.984;5.822;2022-10-17T05:45:25;17.50;99.90
24444;DHT22;13346;50.984;5.822;2022-10-17T05:47:52;17.50;99.90
24444;DHT22;13346;50.984;5.822;2022-10-17T05:50:19;17.60;99.90
24444;DHT22;13346;50.984;5.822;2022-10-17T05:52:52;17.70;99.90
24444;DHT22;13346;50.984;5.822;2022-10-17T05:55:19;17.70;99.90
24444;DHT22;13346;50.984;5.822;2022-10-17T05:57:48;17.70;99.90
24444;DHT22;13346;50.984;5.822;2022-10-17T06:00:17;17.70;99.90
24444;DHT22;13346;50.984;5.822;2022-10-17T06:02:45;17.70;99.90
24444;DHT22;13346;50.984;5.822;2022-10-17T06:05:12;17.70;99.90
24444;DHT22;13346;50.984;5.822;2022-10-17T06:07:40;17.70;99.90
24444;DHT22;13346;50.984;5.822;2022-10-17T06:10:08;17.60;99.90
24444;DHT22;13346;50.984;5.822;2022-10-17T06:12:37;17.70;99.90
24444;DHT22;13346;50.984;5.822;2022-10-17T06:15:06;17.70;99.90
24444;DHT22;13346;50.984;5.822;2022-10-17T06:17:34;17.70;99.90
24444;DHT22;13346;50.984;5.822;2022-10-17T06:20:01;17.60;99.90
24444;DHT22;13346;50.984;5.822;2022-10-17T06:22:28;17.60;99.90
24444;DHT22;13346;50.984;5.822;2022-10-17T06:24:55;17.70;99.90
24444;DHT22;13346;50.984;5.822;2022-10-17T06:27:22;17.70;99.90
24444;DHT22;13346;50.984;5.822;2022-10-17T06:29:50;17.70;99.90
24444;DHT22;13346;50.984;5.822;2022-10-17T06:32:18;17.80;99.90
24444;DHT22;13346;50.984;5.822;2022-10-17T06:34:45;17.90;99.90
24444;DHT22;13346;50.984;5.822;2022-10-17T06:37:12;17.80;99.90
24444;DHT22;13346;50.984;5.822;2022-10-17T06:39:39;17.80;99.90
24444;DHT22;13346;50.984;5.822;2022-10-17T06:42:06;17.80;99.90
24444;DHT22;13346;50.984;5.822;2022-10-17T06:44:34;17.90;99.90
24444;DHT22;13346;50.984;5.822;2022-10-17T06:47:01;18.00;99.90
24444;DHT22;13346;50.984;5.822;2022-10-17T06:49:30;18.00;99.90
24444;DHT22;13346;50.984;5.822;2022-10-17T06:51:58;18.00;99.90
24444;DHT22;13346;50.984;5.822;2022-10-17T06:54:26;18.00;99.90
24444;DHT22;13346;50.984;5.822;2022-10-17T06:56:53;18.00;99.90
24444;DHT22;13346;50.984;5.822;2022-10-17T06:59:21;18.00;99.90
24444;DHT22;13346;50.984;5.822;2022-10-17T07:01:48;18.10;99.90
24444;DHT22;13346;50.984;5.822;2022-10-17T07:04:15;18.00;99.90
24444;DHT22;13346;50.984;5.822;2022-10-17T07:06:44;18.00;99.90
24444;DHT22;13346;50.984;5.822;2022-10-17T07:09:11;18.00;99.90
24444;DHT22;13346;50.984;5.822;2022-10-17T07:11:38;18.10;99.90
24444;DHT22;13346;50.984;5.822;2022-10-17T07:14:05;18.10;99.90
24444;DHT22;13346;50.984;5.822;2022-10-17T07:16:33;18.10;99.90
24444;DHT22;13346;50.984;5.822;2022-10-17T07:19:00;18.10;99.90
24444;DHT22;13346;50.984;5.822;2022-10-17T07:21:27;18.10;99.90
24444;DHT22;13346;50.984;5.822;2022-10-17T07:23:56;18.10;99.90
24444;DHT22;13346;50.984;5.822;2022-10-17T07:26:23;18.10;99.90
24444;DHT22;13346;50.984;5.822;2022-10-17T07:28:52;18.20;99.90
24444;DHT22;13346;50.984;5.822;2022-10-17T07:31:21;18.30;99.90
24444;DHT22;13346;50.984;5.822;2022-10-17T07:33:49;18.40;99.90
24444;DHT22;13346;50.984;5.822;2022-10-17T07:36:16;18.50;99.90
24444;DHT22;13346;50.984;5.822;2022-10-17T07:38:44;18.50;99.90
24444;DHT22;13346;50.984;5.822;2022-10-17T07:41:12;18.60;99.90
24444;DHT22;13346;50.984;5.822;2022-10-17T07:43:39;18.80;99.90
24444;DHT22;13346;50.984;5.822;2022-10-17T07:46:08;18.80;99.90
24444;DHT22;13346;50.984;5.822;2022-10-17T07:48:36;18.90;99.90
24444;DHT22;13346;50.984;5.822;2022-10-17T07:51:06;18.90;99.90
24444;DHT22;13346;50.984;5.822;2022-10-17T07:53:34;18.90;99.90
24444;DHT22;13346;50.984;5.822;2022-10-17T07:56:07;19.00;99.90
24444;DHT22;13346;50.984;5.822;2022-10-17T07:58:36;19.20;99.90
24444;DHT22;13346;50.984;5.822;2022-10-17T08:01:05;19.30;99.90
24444;DHT22;13346;50.984;5.822;2022-10-17T08:03:32;19.40;99.90
24444;DHT22;13346;50.984;5.822;2022-10-17T08:06:00;19.30;99.90
24444;DHT22;13346;50.984;5.822;2022-10-17T08:08:28;19.30;99.90
24444;DHT22;13346;50.984;5.822;2022-10-17T08:11:01;19.40;99.90
24444;DHT22;13346;50.984;5.822;2022-10-17T08:13:28;19.50;99.90
24444;DHT22;13346;50.984;5.822;2022-10-17T08:16:00;19.50;99.90
24444;DHT22;13346;50.984;5.822;2022-10-17T08:18:27;19.40;99.90
24444;DHT22;13346;50.984;5.822;2022-10-17T08:20:57;19.30;99.90
24444;DHT22;13346;50.984;5.822;2022-10-17T08:23:24;19.40;99.90
24444;DHT22;13346;50.984;5.822;2022-10-17T08:25:52;19.60;99.90
24444;DHT22;13346;50.984;5.822;2022-10-17T08:28:19;19.70;99.90
24444;DHT22;13346;50.984;5.822;2022-10-17T08:30:46;19.80;99.90
24444;DHT22;13346;50.984;5.822;2022-10-17T08:33:14;19.90;99.90
24444;DHT22;13346;50.984;5.822;2022-10-17T08:35:42;20.00;99.90
24444;DHT22;13346;50.984;5.822;2022-10-17T08:38:09;19.90;99.90
24444;DHT22;13346;50.984;5.822;2022-10-17T08:40:36;20.00;99.90
24444;DHT22;13346;50.984;5.822;2022-10-17T08:43:18;20.00;99.90
24444;DHT22;13346;50.984;5.822;2022-10-17T08:45:51;19.90;99.90
24444;DHT22;13346;50.984;5.822;2022-10-17T08:48:23;19.90;99.90
24444;DHT22;13346;50.984;5.822;2022-10-17T08:50:53;19.80;99.90
24444;DHT22;13346;50.984;5.822;2022-10-17T08:53:24;19.90;99.90
24444;DHT22;13346;50.984;5.822;2022-10-17T08:55:54;20.00;99.90
24444;DHT22;13346;50.984;5.822;2022-10-17T08:58:23;20.00;99.90
24444;DHT22;13346;50.984;5.822;2022-10-17T09:00:59;20.00;99.90
24444;DHT22;13346;50.984;5.822;2022-10-17T09:03:42;20.10;99.90
24444;DHT22;13346;50.984;5.822;2022-10-17T09:06:18;20.10;99.90
24444;DHT22;13346;50.984;5.822;2022-10-17T09:09:00;20.00;99.90
24444;DHT22;13346;50.984;5.822;2022-10-17T09:11:45;20.00;99.90
24444;DHT22;13346;50.984;5.822;2022-10-17T09:14:37;19.90;99.90
24444;DHT22;13346;50.984;5.822;2022-10-17T09:17:15;19.90;99.90
24444;DHT22;13346;50.984;5.822;2022-10-17T09:19:52;19.90;99.90
24444;DHT22;13346;50.984;5.822;2022-10-17T09:22:25;19.80;99.90
24444;DHT22;13346;50.984;5.822;2022-10-17T09:24:57;19.80;99.90
24444;DHT22;13346;50.984;5.822;2022-10-17T09:27:31;19.80;99.90
24444;DHT22;13346;50.984;5.822;2022-10-17T09:30:19;19.90;99.90
24444;DHT22;13346;50.984;5.822;2022-10-17T09:32:48;19.90;99.90
24444;DHT22;13346;50.984;5.822;2022-10-17T09:35:17;20.00;99.90
24444;DHT22;13346;50.984;5.822;2022-10-17T09:37:45;20.10;99.90
24444;DHT22;13346;50.984;5.822;2022-10-17T09:40:30;20.20;99.90
24444;DHT22;13346;50.984;5.822;2022-10-17T09:42:59;20.40;99.90
24444;DHT22;13346;50.984;5.822;2022-10-17T09:45:40;20.60;99.90
24444;DHT22;13346;50.984;5.822;2022-10-17T09:48:19;20.90;99.90
24444;DHT22;13346;50.984;5.822;2022-10-17T09:50:48;20.90;99.90
24444;DHT22;13346;50.984;5.822;2022-10-17T09:53:22;20.80;99.90
24444;DHT22;13346;50.984;5.822;2022-10-17T09:55:52;20.60;99.90
24444;DHT22;13346;50.984;5.822;2022-10-17T09:58:22;20.60;99.90
24444;DHT22;13346;50.984;5.822;2022-10-17T10:00:50;20.50;99.90
24444;DHT22;13346;50.984;5.822;2022-10-17T10:03:19;20.50;99.90
24444;DHT22;13346;50.984;5.822;2022-10-17T10:06:01;20.30;99.90
24444;DHT22;13346;50.984;5.822;2022-10-17T10:08:30;20.30;99.90
24444;DHT22;13346;50.984;5.822;2022-10-17T10:11:02;20.20;99.90
24444;DHT22;13346;50.984;5.822;2022-10-17T10:13:30;20.10;99.90
24444;DHT22;13346;50.984;5.822;2022-10-17T10:16:18;19.80;99.90
24444;DHT22;13346;50.984;5.822;2022-10-17T10:18:46;19.50;99.90
24444;DHT22;13346;50.984;5.822;2022-10-17T10:21:15;19.20;99.90
24444;DHT22;13346;50.984;5.822;2022-10-17T10:26:31;18.80;99.90
24444;DHT22;13346;50.984;5.822;2022-10-17T10:29:02;18.80;99.90
24444;DHT22;13346;50.984;5.822;2022-10-17T10:31:34;19.00;99.90
24444;DHT22;13346;50.984;5.822;2022-10-17T10:34:14;19.10;99.90
24444;DHT22;13346;50.984;5.822;2022-10-17T10:36:44;19.20;99.90
24444;DHT22;13346;50.984;5.822;2022-10-17T10:39:25;19.30;99.90
24444;DHT22;13346;50.984;5.822;2022-10-17T10:41:54;19.40;99.90
24444;DHT22;13346;50.984;5.822;2022-10-17T10:44:24;19.50;99.90
24444;DHT22;13346;50.984;5.822;2022-10-17T10:47:17;19.50;99.90
24444;DHT22;13346;50.984;5.822;2022-10-17T10:49:45;19.50;99.90
24444;DHT22;13346;50.984;5.822;2022-10-17T10:52:19;19.50;99.90
24444;DHT22;13346;50.984;5.822;2022-10-17T10:54:54;19.60;99.90
24444;DHT22;13346;50.984;5.822;2022-10-17T10:57:26;19.60;99.90
24444;DHT22;13346;50.984;5.822;2022-10-17T10:59:59;19.50;99.90
24444;DHT22;13346;50.984;5.822;2022-10-17T11:02:36;19.50;99.90
24444;DHT22;13346;50.984;5.822;2022-10-17T11:05:13;19.50;99.90
24444;DHT22;13346;50.984;5.822;2022-10-17T11:07:49;19.60;99.90
24444;DHT22;13346;50.984;5.822;2022-10-17T11:10:22;19.50;99.90
24444;DHT22;13346;50.984;5.822;2022-10-17T11:12:56;19.40;99.90
24444;DHT22;13346;50.984;5.822;2022-10-17T11:15:32;19.30;99.90
24444;DHT22;13346;50.984;5.822;2022-10-17T11:18:05;19.20;99.90
24444;DHT22;13346;50.984;5.822;2022-10-17T11:20:37;19.00;99.90
24444;DHT22;13346;50.984;5.822;2022-10-17T11:23:15;18.80;99.90
24444;DHT22;13346;50.984;5.822;2022-10-17T11:25:47;18.70;99.90
24444;DHT22;13346;50.984;5.822;2022-10-17T11:28:18;18.80;99.90
24444;DHT22;13346;50.984;5.822;2022-10-17T11:30:50;18.80;99.90
24444;DHT22;13346;50.984;5.822;2022-10-17T11:33:24;18.90;99.90
24444;DHT22;13346;50.984;5.822;2022-10-17T11:35:56;19.10;99.90
24444;DHT22;13346;50.984;5.822;2022-10-17T11:38:30;19.10;99.90
24444;DHT22;13346;50.984;5.822;2022-10-17T11:41:01;19.30;99.90
24444;DHT22;13346;50.984;5.822;2022-10-17T11:43:32;19.30;99.90
24444;DHT22;13346;50.984;5.822;2022-10-17T11:46:06;19.30;99.90
24444;DHT22;13346;50.984;5.822;2022-10-17T11:48:40;19.30;99.90
24444;DHT22;13346;50.984;5.822;2022-10-17T11:51:10;19.30;99.90
24444;DHT22;13346;50.984;5.822;2022-10-17T11:53:45;19.40;99.90
24444;DHT22;13346;50.984;5.822;2022-10-17T11:56:18;19.50;99.90
24444;DHT22;13346;50.984;5.822;2022-10-17T11:58:54;19.70;99.90
24444;DHT22;13346;50.984;5.822;2022-10-17T12:01:30;19.90;99.90
24444;DHT22;13346;50.984;5.822;2022-10-17T12:04:16;20.00;99.90
24444;DHT22;13346;50.984;5.822;2022-10-17T12:07:01;20.00;99.90
24444;DHT22;13346;50.984;5.822;2022-10-17T12:09:39;20.10;99.90
24444;DHT22;13346;50.984;5.822;2022-10-17T12:12:08;20.20;99.90
24444;DHT22;13346;50.984;5.822;2022-10-17T12:14:40;20.10;99.90
24444;DHT22;13346;50.984;5.822;2022-10-17T12:17:28;20.10;99.90
24444;DHT22;13346;50.984;5.822;2022-10-17T12:20:23;20.10;99.90
24444;DHT22;13346;50.984;5.822;2022-10-17T12:22:52;20.00;99.90
24444;DHT22;13346;50.984;5.822;2022-10-17T12:25:21;20.00;99.90
24444;DHT22;13346;50.984;5.822;2022-10-17T12:27:49;19.90;99.90
24444;DHT22;13346;50.984;5.822;2022-10-17T12:30:20;19.90;99.90
24444;DHT22;13346;50.984;5.822;2022-10-17T12:33:00;19.90;99.90
24444;DHT22;13346;50.984;5.822;2022-10-17T12:35:31;19.80;99.90
24444;DHT22;13346;50.984;5.822;2022-10-17T12:41:02;19.80;99.90
24444;DHT22;13346;50.984;5.822;2022-10-17T12:43:56;19.80;99.90
24444;DHT22;13346;50.984;5.822;2022-10-17T12:46:45;19.70;99.90
24444;DHT22;13346;50.984;5.822;2022-10-17T12:49:37;19.70;99.90
24444;DHT22;13346;50.984;5.822;2022-10-17T12:52:29;19.70;99.90
24444;DHT22;13346;50.984;5.822;2022-10-17T12:55:16;19.70;99.90
24444;DHT22;13346;50.984;5.822;2022-10-17T12:57:50;19.60;99.90
24444;DHT22;13346;50.984;5.822;2022-10-17T13:00:27;19.60;99.90
24444;DHT22;13346;50.984;5.822;2022-10-17T13:03:00;19.60;99.90
24444;DHT22;13346;50.984;5.822;2022-10-17T13:05:31;19.50;99.90
24444;DHT22;13346;50.984;5.822;2022-10-17T13:08:02;19.50;99.90
24444;DHT22;13346;50.984;5.822;2022-10-17T13:10:32;19.50;99.90
24444;DHT22;13346;50.984;5.822;2022-10-17T13:13:06;19.50;99.90
24444;DHT22;13346;50.984;5.822;2022-10-17T13:15:36;19.60;99.90
24444;DHT22;13346;50.984;5.822;2022-10-17T13:18:04;19.70;99.90
24444;DHT22;13346;50.984;5.822;2022-10-17T13:20:32;19.80;99.90
24444;DHT22;13346;50.984;5.822;2022-10-17T13:23:00;19.80;99.90
24444;DHT22;13346;50.984;5.822;2022-10-17T13:25:28;19.90;99.90
24444;DHT22;13346;50.984;5.822;2022-10-17T13:28:12;20.10;99.90
24444;DHT22;13346;50.984;5.822;2022-10-17T13:30:44;20.10;99.90
24444;DHT22;13346;50.984;5.822;2022-10-17T13:33:28;20.00;99.90
24444;DHT22;13346;50.984;5.822;2022-10-17T13:35:56;20.00;99.90
24444;DHT22;13346;50.984;5.822;2022-10-17T23:54:06;14.70;99.90
24444;DHT22;13346;50.984;5.822;2022-10-17T23:56:33;14.70;99.90
24444;DHT22;13346;50.984;5.822;2022-10-17T23:59:00;14.60;99.90
